Swan Lake, Canada
Current Conditions -  °F | °C
As of 10:15 PM on Monday 22 Dec 2014 (Local Time) from KD55 Reporting Station
Haze Haze  
Wind Chill: 21°   Ceiling: 100
Heat Index: 32°   Visibility: 0.75mi
Dew Point: 32°   Wind: 17mph
Humidity: 100%   Direction: 30°NNE
Pressure: 29.75"   Gusts: 21mph
Location:  49.4°N, 98.8°W
Report Text: KD55 230415Z AUTO 03015G18KT 3/4SM BR OVC001 00/00 A2975 RMK AO2
Loading
Personal Weather Stations






























Interactive Weather Map New forecast layout! Learn more

10-Day Weather Forecast

Advertisements
Track Severe Weather on mobile